createdAt,value
2024-01-21T00:00:48.753Z,102265.19
2024-01-21T00:01:54.446Z,102262.33
2024-01-21T00:03:00.012Z,102262.14
2024-01-21T00:04:05.783Z,102265.01
2024-01-21T00:05:11.413Z,102261.04
2024-01-21T00:06:17.104Z,102260.39
2024-01-21T00:07:22.690Z,102260.41
2024-01-21T00:08:28.454Z,102263.88
2024-01-21T00:09:34.003Z,102267.87
2024-01-21T00:10:39.544Z,102268.55
2024-01-21T00:11:45.115Z,102261.07
2024-01-21T00:12:50.705Z,102260.56
2024-01-21T00:13:56.273Z,102262.96
2024-01-21T00:15:04.356Z,102268.7
2024-01-21T00:16:09.880Z,102261.28
2024-01-21T00:17:15.385Z,102260.67
2024-01-21T00:18:21.081Z,102259.39
2024-01-21T00:19:27.076Z,102259.7
2024-01-21T00:20:32.810Z,102260.25
2024-01-21T00:21:38.480Z,102261.45
2024-01-21T00:22:44.070Z,102263.85
2024-01-21T00:23:50.588Z,102268.34
2024-01-21T00:24:56.094Z,102270.18
2024-01-21T00:26:01.653Z,102265.3
2024-01-21T00:27:07.159Z,102269.97
2024-01-21T00:28:12.672Z,102262.8
2024-01-21T00:29:18.180Z,102263.77
2024-01-21T00:30:23.814Z,102267.73
2024-01-21T00:31:29.653Z,102258.05
2024-01-21T00:32:35.362Z,102264.61
2024-01-21T00:33:41.221Z,102269.09
2024-01-21T00:34:46.886Z,102268.57
2024-01-21T00:35:52.386Z,102268.44
2024-01-21T00:36:57.951Z,102262.84
2024-01-21T00:38:03.487Z,102271.06
2024-01-21T00:39:09.091Z,102269.05
2024-01-21T00:40:14.692Z,102270.66
2024-01-21T00:41:20.251Z,102273.97
2024-01-21T00:42:26.087Z,102268.35
2024-01-21T00:43:31.645Z,102267.33
2024-01-21T00:44:37.185Z,102269.69
2024-01-21T00:45:42.811Z,102266.12
2024-01-21T00:46:48.328Z,102269.22
2024-01-21T00:47:53.954Z,102270.52
2024-01-21T00:49:00.043Z,102268.62
2024-01-21T00:50:05.819Z,102266.59
2024-01-21T00:51:11.379Z,102265.16
2024-01-21T00:52:16.967Z,102270.66
2024-01-21T00:53:22.467Z,102273.29
2024-01-21T00:54:28.066Z,102267.7
2024-01-21T00:55:33.968Z,102264.84
2024-01-21T00:56:39.437Z,102274.13
2024-01-21T00:57:45.075Z,102272.12
2024-01-21T00:58:50.800Z,102270.15
2024-01-21T00:59:56.295Z,102270.57
2024-01-21T01:01:02.025Z,102266.41
2024-01-21T01:02:07.711Z,102259.86
2024-01-21T01:03:13.415Z,102261.02
2024-01-21T01:04:19.196Z,102259.86
2024-01-21T01:05:25.681Z,102262.3
2024-01-21T01:06:31.309Z,102253.9
2024-01-21T01:07:36.889Z,102264.66
2024-01-21T01:08:42.461Z,102258.02
2024-01-21T01:09:48.092Z,102259.44
2024-01-21T01:10:53.676Z,102265.39
2024-01-21T01:11:59.207Z,102267
2024-01-21T01:13:04.730Z,102265.25
2024-01-21T01:14:10.232Z,102272.62
2024-01-21T01:15:15.951Z,102275.77
2024-01-21T01:16:21.549Z,102270.55
2024-01-21T01:17:27.034Z,102273.52
2024-01-21T01:18:32.792Z,102273.14
2024-01-21T01:19:38.663Z,102277.3
2024-01-21T01:20:44.539Z,102272.64
2024-01-21T01:21:50.226Z,102265.06
2024-01-21T01:22:55.954Z,102268.38
2024-01-21T01:24:01.444Z,102266.03
2024-01-21T01:25:06.943Z,102268.7
2024-01-21T01:26:12.489Z,102266.45
2024-01-21T01:27:18.064Z,102273.19
2024-01-21T01:28:23.603Z,102257.73
2024-01-21T01:29:29.095Z,102267.64
2024-01-21T01:30:34.613Z,102265.44
2024-01-21T01:31:40.266Z,102268.19
2024-01-21T01:32:46.041Z,102267.82
2024-01-21T01:33:51.952Z,102274.52
2024-01-21T01:34:58.592Z,102276.81
2024-01-21T01:36:04.344Z,102275.06
2024-01-21T01:37:09.831Z,102271.38
2024-01-21T01:38:15.309Z,102283.51
2024-01-21T01:39:21.871Z,102280.88
2024-01-21T01:40:27.421Z,102282.27
2024-01-21T01:41:32.918Z,102287.2
2024-01-21T01:42:38.814Z,102281.75
2024-01-21T01:43:44.770Z,102282.59
2024-01-21T01:44:50.262Z,102283.98
2024-01-21T01:45:55.948Z,102291.63
2024-01-21T01:47:04.168Z,102285.45
2024-01-21T01:48:09.980Z,102292.09
2024-01-21T01:49:16.019Z,102291.22
2024-01-21T01:50:21.788Z,102302.29
2024-01-21T01:51:27.380Z,102303.26
2024-01-21T01:52:33.050Z,102298.41
2024-01-21T01:53:38.582Z,102300.48
2024-01-21T01:54:44.130Z,102305.02
2024-01-21T01:55:49.711Z,102308.06
2024-01-21T01:56:55.217Z,102307.97
2024-01-21T01:58:00.692Z,102301.27
2024-01-21T01:59:06.215Z,102301.89
2024-01-21T02:00:11.810Z,102297.92
2024-01-21T02:01:17.683Z,102299.34
2024-01-21T02:02:23.367Z,102304.56
2024-01-21T02:03:29.192Z,102306.41
2024-01-21T02:04:35.268Z,102304.19
2024-01-21T02:05:40.989Z,102304.14
2024-01-21T02:06:46.812Z,102302.91
2024-01-21T02:07:52.337Z,102296.16
2024-01-21T02:08:57.805Z,102297.08
2024-01-21T02:10:03.330Z,102301.27
2024-01-21T02:11:08.986Z,102298.33
2024-01-21T02:12:14.583Z,102296.94
2024-01-21T02:13:20.157Z,102301.13
2024-01-21T02:14:25.637Z,102303.06
2024-01-21T02:15:31.810Z,102298.68
2024-01-21T02:16:37.378Z,102298.68
2024-01-21T02:17:43.144Z,102297.44
2024-01-21T02:18:49.103Z,102297.98
2024-01-21T02:19:55.067Z,102295.78
2024-01-21T02:21:00.696Z,102303.36
2024-01-21T02:22:06.182Z,102294.95
2024-01-21T02:23:11.719Z,102303.91
2024-01-21T02:24:17.232Z,102293.25
2024-01-21T02:25:22.851Z,102294.59
2024-01-21T02:26:28.419Z,102294.59
2024-01-21T02:27:34.012Z,102297.71
2024-01-21T02:28:39.601Z,102294.53
2024-01-21T02:29:45.157Z,102302.38
2024-01-21T02:30:51.064Z,102301.45
2024-01-21T02:31:56.732Z,102302.88
2024-01-21T02:33:02.308Z,102314.91
2024-01-21T02:34:07.995Z,102304.95
2024-01-21T02:35:13.692Z,102302.88
2024-01-21T02:36:19.274Z,102311.64
2024-01-21T02:37:24.826Z,102307.63
2024-01-21T02:38:30.331Z,102301.95
2024-01-21T02:39:35.909Z,102301.53
2024-01-21T02:40:41.449Z,102312.72
2024-01-21T02:41:46.948Z,102310.03
2024-01-21T02:42:52.512Z,102306.11
2024-01-21T02:43:58.271Z,102303.06
2024-01-21T02:45:03.783Z,102304.45
2024-01-21T02:46:09.284Z,102295.63
2024-01-21T02:47:14.919Z,102295.73
2024-01-21T02:48:20.665Z,102302
2024-01-21T02:49:26.809Z,102293.05
2024-01-21T02:50:32.613Z,102295.91
2024-01-21T02:51:38.135Z,102299.5
2024-01-21T02:52:43.645Z,102293.27
2024-01-21T02:53:49.175Z,102297.29
2024-01-21T02:54:54.750Z,102301.8
2024-01-21T02:56:00.268Z,102305.81
2024-01-21T02:57:05.775Z,102303.61
2024-01-21T02:58:11.329Z,102305.44
2024-01-21T02:59:16.855Z,102300.05
2024-01-21T03:00:22.473Z,102301.48
2024-01-21T03:01:28.178Z,102302.81
2024-01-21T03:02:33.944Z,102310.03
2024-01-21T03:03:39.676Z,102308.78
2024-01-21T03:04:45.283Z,102305
2024-01-21T03:05:50.875Z,102299.69
2024-01-21T03:06:56.460Z,102300.98
2024-01-21T03:08:02.069Z,102301.58
2024-01-21T03:09:07.548Z,102309.98
2024-01-21T03:10:13.233Z,102296.97
2024-01-21T03:11:18.761Z,102302.84
2024-01-21T03:12:24.271Z,102300.7
2024-01-21T03:13:29.782Z,102301.75
2024-01-21T03:14:35.334Z,102309.23
2024-01-21T03:15:40.947Z,102306.98
2024-01-21T03:16:46.599Z,102300.11
2024-01-21T03:17:52.194Z,102305.64
2024-01-21T03:18:57.961Z,102310.25
2024-01-21T03:20:03.722Z,102303.02
2024-01-21T03:21:09.536Z,102311.04
2024-01-21T03:22:15.388Z,102314.59
2024-01-21T03:23:20.907Z,102319.27
2024-01-21T03:24:26.496Z,102313.67
2024-01-21T03:25:32.096Z,102316.12
2024-01-21T03:26:37.626Z,102319.94
2024-01-21T03:27:45.335Z,102315.97
2024-01-21T03:28:54.116Z,102319.73
2024-01-21T03:29:59.648Z,102321.96
2024-01-21T03:31:05.182Z,102323.3
2024-01-21T03:32:10.672Z,102326.52
2024-01-21T03:33:16.515Z,102326.57
2024-01-21T03:34:22.640Z,102331.03
2024-01-21T03:35:28.510Z,102333.36
2024-01-21T03:36:34.086Z,102331.8
2024-01-21T03:37:40.147Z,102332.59
2024-01-21T03:38:45.610Z,102332.05
2024-01-21T03:39:51.198Z,102333.75
2024-01-21T03:40:56.792Z,102337.48
2024-01-21T03:42:02.353Z,102341.04
2024-01-21T03:43:07.928Z,102328.7
2024-01-21T03:44:13.411Z,102333.51
2024-01-21T03:45:19.056Z,102328.95
2024-01-21T03:46:24.766Z,102332.42
2024-01-21T03:47:30.331Z,102333.75
2024-01-21T03:48:36.054Z,102329.45
2024-01-21T03:49:42.127Z,102333.14
2024-01-21T03:50:48.161Z,102338.07
2024-01-21T03:51:53.947Z,102333.23
2024-01-21T03:52:59.532Z,102332.89
2024-01-21T03:54:05.065Z,102328.93
2024-01-21T03:55:10.582Z,102333.86
2024-01-21T03:56:16.107Z,102326.57
2024-01-21T03:57:23.813Z,102320.25
2024-01-21T03:58:29.391Z,102327.64
2024-01-21T03:59:34.875Z,102326.43
2024-01-21T04:00:40.630Z,102330.07
2024-01-21T04:01:46.536Z,102329.7
2024-01-21T04:02:52.204Z,102331.03
2024-01-21T04:03:57.931Z,102336.9
2024-01-21T04:05:03.758Z,102334.4
2024-01-21T04:06:09.641Z,102331.08
2024-01-21T04:07:15.313Z,102328.63
2024-01-21T04:08:20.816Z,102325.45
2024-01-21T04:09:26.545Z,102338.83
2024-01-21T04:10:32.185Z,102334.08
2024-01-21T04:11:37.662Z,102326.8
2024-01-21T04:12:43.264Z,102328.13
2024-01-21T04:13:48.890Z,102327.47
2024-01-21T04:14:54.467Z,102326.27
2024-01-21T04:16:00.114Z,102323.59
2024-01-21T04:17:05.644Z,102326.77
2024-01-21T04:18:11.253Z,102335.26
2024-01-21T04:19:17.131Z,102333.2
2024-01-21T04:20:22.867Z,102333.2
2024-01-21T04:21:28.637Z,102336.84
2024-01-21T04:22:34.365Z,102332.84
2024-01-21T04:23:39.845Z,102328.37
2024-01-21T04:24:45.408Z,102327.53
2024-01-21T04:25:51.113Z,102325.33
2024-01-21T04:26:56.759Z,102330.3
2024-01-21T04:28:02.259Z,102326.84
2024-01-21T04:29:07.732Z,102321.06
2024-01-21T04:30:13.438Z,102321.98
2024-01-21T04:31:19.006Z,102324.58
2024-01-21T04:32:24.610Z,102325.92
2024-01-21T04:33:30.363Z,102326.79
2024-01-21T04:34:36.225Z,102319.68
2024-01-21T04:35:42.129Z,102324.11
2024-01-21T04:36:47.633Z,102320.15
2024-01-21T04:37:53.313Z,102320.52
2024-01-21T04:38:58.821Z,102330.2
2024-01-21T04:40:04.347Z,102321.31
2024-01-21T04:41:09.864Z,102318.91
2024-01-21T04:42:15.409Z,102322.55
2024-01-21T04:43:20.977Z,102317.75
2024-01-21T04:44:26.737Z,102318.27
2024-01-21T04:45:32.282Z,102312.87
2024-01-21T04:46:37.950Z,102307.89
2024-01-21T04:47:45.897Z,102315.87
2024-01-21T04:48:52.005Z,102311.11
2024-01-21T04:49:57.947Z,102308.53
2024-01-21T04:51:03.426Z,102313.59
2024-01-21T04:52:08.891Z,102301.75
2024-01-21T04:53:14.397Z,102302.81
2024-01-21T04:54:20.024Z,102308.23
2024-01-21T04:55:25.828Z,102304.27
2024-01-21T04:56:31.368Z,102308.83
2024-01-21T04:57:36.967Z,102300.86
2024-01-21T04:58:42.567Z,102301.41
2024-01-21T04:59:48.085Z,102297.81
2024-01-21T05:00:53.912Z,102297.68
2024-01-21T05:01:59.660Z,102302.73
2024-01-21T05:03:05.294Z,102298.77
2024-01-21T05:04:11.015Z,102302.37
2024-01-21T05:05:16.682Z,102301.32
2024-01-21T05:06:22.324Z,102300.86
2024-01-21T05:07:30.737Z,102305.34
2024-01-21T05:08:36.262Z,102308.66
2024-01-21T05:09:41.888Z,102304.28
2024-01-21T05:10:47.498Z,102309.66
2024-01-21T05:11:53.118Z,102308.59
2024-01-21T05:12:58.776Z,102308.25
2024-01-21T05:14:04.386Z,102306.19
2024-01-21T05:15:09.924Z,102297.94
2024-01-21T05:16:15.457Z,102303.47
2024-01-21T05:17:20.956Z,102301.73
2024-01-21T05:18:26.664Z,102301.3
2024-01-21T05:19:32.274Z,102301.99
2024-01-21T05:20:37.831Z,102305.35
2024-01-21T05:21:43.581Z,102302.05
2024-01-21T05:22:49.173Z,102298.89
2024-01-21T05:23:55.015Z,102299.39
2024-01-21T05:25:00.626Z,102300.8
2024-01-21T05:26:06.288Z,102299.04
2024-01-21T05:27:11.925Z,102302.45
2024-01-21T05:28:17.559Z,102300.79
2024-01-21T05:29:23.132Z,102300.86
2024-01-21T05:30:28.674Z,102304.09
2024-01-21T05:31:34.233Z,102299.64
2024-01-21T05:32:39.835Z,102302.5
2024-01-21T05:33:45.835Z,102299.63
2024-01-21T05:34:51.612Z,102295.5
2024-01-21T05:35:57.267Z,102300.45
2024-01-21T05:37:03.102Z,102300.45
2024-01-21T05:38:08.911Z,102304.47
2024-01-21T05:39:14.458Z,102303.05
2024-01-21T05:40:19.985Z,102307.27
2024-01-21T05:41:25.548Z,102304.72
2024-01-21T05:42:31.081Z,102311.33
2024-01-21T05:43:36.604Z,102312.81
2024-01-21T05:44:42.114Z,102310.32
2024-01-21T05:45:48.001Z,102315.05
2024-01-21T05:46:55.286Z,102307.39
2024-01-21T05:48:03.689Z,102316.09
2024-01-21T05:49:09.440Z,102316.23
2024-01-21T05:50:15.063Z,102313.23
2024-01-21T05:51:20.603Z,102318.78
2024-01-21T05:52:26.224Z,102318.52
2024-01-21T05:53:31.710Z,102319.12
2024-01-21T05:54:37.434Z,102318.98
2024-01-21T05:55:43.020Z,102327.22
2024-01-21T05:56:48.504Z,102332.86
2024-01-21T05:57:54.278Z,102337.86
2024-01-21T05:58:59.850Z,102333.55
2024-01-21T06:00:05.444Z,102330.13
2024-01-21T06:01:11.227Z,102330.69
2024-01-21T06:02:17.080Z,102325.43
2024-01-21T06:03:23.057Z,102324.27
2024-01-21T06:04:29.171Z,102323
2024-01-21T06:05:34.794Z,102326
2024-01-21T06:06:42.722Z,102324.34
2024-01-21T06:07:49.939Z,102322.31
2024-01-21T06:08:55.466Z,102329.15
2024-01-21T06:10:01.194Z,102329.75
2024-01-21T06:11:06.770Z,102331.27
2024-01-21T06:12:12.305Z,102327.77
2024-01-21T06:13:17.883Z,102335.02
2024-01-21T06:14:23.383Z,102333.36
2024-01-21T06:15:29.006Z,102333.91
2024-01-21T06:16:34.647Z,102334.47
2024-01-21T06:17:40.289Z,102328.37
2024-01-21T06:18:46.758Z,102325.83
2024-01-21T06:19:52.514Z,102329.94
2024-01-21T06:20:58.005Z,102328.6
2024-01-21T06:22:03.522Z,102331.83
2024-01-21T06:23:08.997Z,102329.25
2024-01-21T06:24:14.730Z,102327.17
2024-01-21T06:25:20.315Z,102327.67
2024-01-21T06:26:25.923Z,102331.37
2024-01-21T06:27:31.474Z,102318.16
2024-01-21T06:28:36.988Z,102329.52
2024-01-21T06:29:42.587Z,102330.39
2024-01-21T06:30:50.828Z,102325.92
2024-01-21T06:31:56.562Z,102327.77
2024-01-21T06:33:05.126Z,102326.05
2024-01-21T06:34:10.890Z,102317.7
2024-01-21T06:35:17.360Z,102322.17
2024-01-21T06:36:22.918Z,102325.69
2024-01-21T06:37:28.974Z,102318.16
2024-01-21T06:38:35.490Z,102324.34
2024-01-21T06:39:41.174Z,102321.63
2024-01-21T06:40:58.489Z,102321.54
2024-01-21T06:42:04.027Z,102324.17
2024-01-21T06:43:09.585Z,102326.3
2024-01-21T06:44:15.105Z,102323.47
2024-01-21T06:45:20.796Z,102324.2
2024-01-21T06:46:26.504Z,102321.3
2024-01-21T06:47:32.132Z,102318.07
2024-01-21T06:48:37.839Z,102315.26
2024-01-21T06:49:43.958Z,102319.13
2024-01-21T06:50:49.833Z,102315.95
2024-01-21T06:51:55.641Z,102319.41
2024-01-21T06:53:01.249Z,102321.13
2024-01-21T06:54:06.749Z,102325.09
2024-01-21T06:55:12.226Z,102318.27
2024-01-21T06:56:17.723Z,102320.52
2024-01-21T06:57:23.281Z,102326.84
2024-01-21T06:58:29.891Z,102325.93
2024-01-21T06:59:35.444Z,102330.45
2024-01-21T07:00:41.322Z,102331.42
2024-01-21T07:01:47.112Z,102332.39
2024-01-21T07:02:52.694Z,102329.29
2024-01-21T07:03:58.418Z,102332.02
2024-01-21T07:05:04.114Z,102329.76
2024-01-21T07:06:09.699Z,102333.04
2024-01-21T07:07:15.200Z,102332.25
2024-01-21T07:08:21.027Z,102334.09
2024-01-21T07:09:26.942Z,102336.81
2024-01-21T07:10:32.539Z,102337.28
2024-01-21T07:11:38.166Z,102338.16
2024-01-21T07:12:43.699Z,102339.5
2024-01-21T07:13:49.618Z,102339
2024-01-21T07:14:55.137Z,102341.07
2024-01-21T07:16:00.714Z,102337.8
2024-01-21T07:17:06.314Z,102334.56
2024-01-21T07:18:12.006Z,102334.42
2024-01-21T07:19:17.790Z,102332.39
2024-01-21T07:20:23.451Z,102332.71
2024-01-21T07:21:29.000Z,102331.19
2024-01-21T07:22:34.571Z,102329.62
2024-01-21T07:23:40.067Z,102328.65
2024-01-21T07:24:46.106Z,102326.66
2024-01-21T07:25:51.778Z,102332.62
2024-01-21T07:26:57.270Z,102332.88
2024-01-21T07:28:02.877Z,102333.1
2024-01-21T07:29:08.463Z,102324.64
2024-01-21T07:30:14.301Z,102326.77
2024-01-21T07:31:19.939Z,102328.06
2024-01-21T07:32:25.698Z,102329.34
2024-01-21T07:33:31.620Z,102322.7
2024-01-21T07:34:37.531Z,102333.84
2024-01-21T07:35:43.218Z,102329.45
2024-01-21T07:36:48.847Z,102329.13
2024-01-21T07:37:54.581Z,102326.97
2024-01-21T07:39:00.102Z,102326.14
2024-01-21T07:40:05.857Z,102334.17
2024-01-21T07:41:11.446Z,102330.2
2024-01-21T07:42:16.998Z,102336.91
2024-01-21T07:43:22.616Z,102332.47
2024-01-21T07:44:28.149Z,102332.88
2024-01-21T07:45:33.728Z,102335.2
2024-01-21T07:46:39.292Z,102333.44
2024-01-21T07:47:44.779Z,102337.09
2024-01-21T07:48:50.409Z,102329.42
2024-01-21T07:49:56.139Z,102333.54
2024-01-21T07:51:01.662Z,102342.13
2024-01-21T07:52:07.174Z,102341.34
2024-01-21T07:53:12.667Z,102335.53
2024-01-21T07:54:18.206Z,102341.99
2024-01-21T07:55:23.742Z,102334.5
2024-01-21T07:56:29.581Z,102336.03
2024-01-21T07:57:35.105Z,102332.06
2024-01-21T07:58:40.629Z,102335.2
2024-01-21T07:59:46.094Z,102332.16
2024-01-21T08:00:51.720Z,102338.44
2024-01-21T08:01:57.486Z,102339.96
2024-01-21T08:03:03.120Z,102340.38
2024-01-21T08:04:08.945Z,102340.01
2024-01-21T08:05:14.765Z,102339.77
2024-01-21T08:06:20.523Z,102334.09
2024-01-21T08:07:26.384Z,102336.77
2024-01-21T08:08:31.905Z,102334.47
2024-01-21T08:09:37.526Z,102331.88
2024-01-21T08:10:43.152Z,102322.88
2024-01-21T08:11:48.645Z,102330.03
2024-01-21T08:12:54.249Z,102321.07
2024-01-21T08:13:59.853Z,102323.7
2024-01-21T08:15:05.593Z,102323.15
2024-01-21T08:16:11.099Z,102319.97
2024-01-21T08:17:16.600Z,102322.65
2024-01-21T08:18:22.454Z,102323.84
2024-01-21T08:19:29.835Z,102321.67
2024-01-21T08:20:35.569Z,102323.1
2024-01-21T08:21:41.225Z,102321.77
2024-01-21T08:22:46.950Z,102326.61
2024-01-21T08:23:52.836Z,102322.28
2024-01-21T08:24:58.416Z,102330.77
2024-01-21T08:26:04.047Z,102332.77
2024-01-21T08:27:09.733Z,102322.22
2024-01-21T08:28:15.274Z,102327.58
2024-01-21T08:29:20.749Z,102319.17
2024-01-21T08:30:26.390Z,102323.84
2024-01-21T08:31:32.005Z,102321.43
2024-01-21T08:32:37.681Z,102320.69
2024-01-21T08:33:43.770Z,102323
2024-01-21T08:34:49.933Z,102319.03
2024-01-21T08:35:55.625Z,102318.34
2024-01-21T08:37:01.300Z,102320.23
2024-01-21T08:38:06.906Z,102314.2
2024-01-21T08:39:12.477Z,102318.72
2024-01-21T08:40:18.212Z,102316.64
2024-01-21T08:41:23.855Z,102317.74
2024-01-21T08:42:29.423Z,102316.55
2024-01-21T08:43:34.925Z,102306.94
2024-01-21T08:44:40.383Z,102311.75
2024-01-21T08:45:45.968Z,102309.67
2024-01-21T08:46:51.477Z,102310.88
2024-01-21T08:47:57.037Z,102311.92
2024-01-21T08:49:02.863Z,102313.36
2024-01-21T08:50:08.679Z,102307.32
2024-01-21T08:51:14.488Z,102311.34
2024-01-21T08:52:20.076Z,102311.56
2024-01-21T08:53:25.549Z,102308.93
2024-01-21T08:54:31.212Z,102312.39
2024-01-21T08:55:37.060Z,102311.28
2024-01-21T08:56:42.600Z,102314.7
2024-01-21T08:57:48.194Z,102310.36
2024-01-21T08:58:54.827Z,102309.57
2024-01-21T09:00:00.449Z,102315.95
2024-01-21T09:01:06.194Z,102317.47
2024-01-21T09:02:12.138Z,102311.79
2024-01-21T09:03:17.866Z,102318.24
2024-01-21T09:04:23.793Z,102313.77
2024-01-21T09:05:29.734Z,102310.31
2024-01-21T09:06:36.489Z,102310.58
2024-01-21T09:07:41.988Z,102308.92
2024-01-21T09:08:47.549Z,102312.29
2024-01-21T09:09:53.217Z,102311.97
2024-01-21T09:10:58.881Z,102312.02
2024-01-21T09:12:06.222Z,102304.72
2024-01-21T09:13:14.218Z,102312.43
2024-01-21T09:14:19.736Z,102301.83
2024-01-21T09:15:25.334Z,102306.21
2024-01-21T09:16:30.883Z,102306.3
2024-01-21T09:17:36.555Z,102304.13
2024-01-21T09:18:42.506Z,102301.5
2024-01-21T09:19:48.374Z,102296.97
2024-01-21T09:20:54.052Z,102298.59
2024-01-21T09:21:59.590Z,102297.06
2024-01-21T09:23:05.321Z,102298.17
2024-01-21T09:24:10.829Z,102298.52
2024-01-21T09:25:16.332Z,102300.18
2024-01-21T09:26:21.899Z,102291.83
2024-01-21T09:27:27.767Z,102295.05
2024-01-21T09:28:33.438Z,102290.24
2024-01-21T09:29:38.925Z,102286.66
2024-01-21T09:30:44.476Z,102294.22
2024-01-21T09:31:50.107Z,102288.24
2024-01-21T09:32:55.787Z,102291.92
2024-01-21T09:34:01.884Z,102292.41
2024-01-21T09:35:08.241Z,102282.27
2024-01-21T09:36:14.252Z,102288.05
2024-01-21T09:37:19.848Z,102289.9
2024-01-21T09:38:25.419Z,102290.45
2024-01-21T09:39:30.969Z,102285.14
2024-01-21T09:40:36.580Z,102279.97
2024-01-21T09:41:42.575Z,102288.17
2024-01-21T09:42:48.247Z,102279.4
2024-01-21T09:43:54.856Z,102281.25
2024-01-21T09:45:00.362Z,102282.36
2024-01-21T09:46:05.851Z,102280.75
2024-01-21T09:47:11.313Z,102275.63
2024-01-21T09:48:17.206Z,102273.75
2024-01-21T09:49:23.518Z,102272.05
2024-01-21T09:50:31.114Z,102276.36
2024-01-21T09:51:36.921Z,102273.31
2024-01-21T09:52:42.819Z,102274.79
2024-01-21T09:53:48.660Z,102272.34
2024-01-21T09:54:54.332Z,102267.23
2024-01-21T09:56:00.054Z,102267.84
2024-01-21T09:57:05.533Z,102273.25
2024-01-21T09:58:11.358Z,102266.79
2024-01-21T09:59:16.905Z,102271.5
2024-01-21T10:00:22.465Z,102270.16
2024-01-21T10:01:28.129Z,102263.01
2024-01-21T10:02:33.797Z,102259.12
2024-01-21T10:03:39.858Z,102268.55
2024-01-21T10:04:45.918Z,102271.28
2024-01-21T10:05:51.533Z,102269.58
2024-01-21T10:06:57.212Z,102265.64
2024-01-21T10:08:02.802Z,102272.02
2024-01-21T10:09:08.277Z,102264.41
2024-01-21T10:10:14.239Z,102264.42
2024-01-21T10:11:19.967Z,102263.38
2024-01-21T10:12:25.560Z,102265.28
2024-01-21T10:13:31.166Z,102263.77
2024-01-21T10:14:36.665Z,102266.45
2024-01-21T10:15:42.482Z,102267.9
2024-01-21T10:16:48.108Z,102265.77
2024-01-21T10:17:53.761Z,102265.35
2024-01-21T10:18:59.384Z,102255.52
2024-01-21T10:20:05.229Z,102252.66
2024-01-21T10:21:10.875Z,102250.48
2024-01-21T10:22:16.500Z,102256.81
2024-01-21T10:23:22.155Z,102258.2
2024-01-21T10:24:27.720Z,102253.41
2024-01-21T10:25:33.264Z,102256.27
2024-01-21T10:26:38.751Z,102256.18
2024-01-21T10:27:44.517Z,102252.85
2024-01-21T10:28:51.522Z,102249.57
2024-01-21T10:29:57.430Z,102241.64
2024-01-21T10:31:03.411Z,102242.14
2024-01-21T10:32:09.026Z,102240.53
2024-01-21T10:33:15.055Z,102237.98
2024-01-21T10:34:22.157Z,102236.52
2024-01-21T10:35:27.850Z,102239.56
2024-01-21T10:36:33.402Z,102239.33
2024-01-21T10:37:39.130Z,102232.28
2024-01-21T10:38:45.141Z,102233.94
2024-01-21T10:39:51.243Z,102233.54
2024-01-21T10:40:57.167Z,102225.99
2024-01-21T10:42:02.675Z,102223.68
2024-01-21T10:43:08.408Z,102228.06
2024-01-21T10:44:13.995Z,102223.91
2024-01-21T10:45:19.551Z,102229.89
2024-01-21T10:46:25.194Z,102229.2
2024-01-21T10:47:30.848Z,102222.63
2024-01-21T10:48:36.607Z,102225.02
2024-01-21T10:49:42.689Z,102221.41
2024-01-21T10:50:48.608Z,102219.41
2024-01-21T10:51:56.573Z,102218.02
2024-01-21T10:53:02.133Z,102215.2
2024-01-21T10:54:07.686Z,102213.8
2024-01-21T10:55:13.258Z,102207.81
2024-01-21T10:56:18.844Z,102207.66
2024-01-21T10:57:24.512Z,102209.16
2024-01-21T10:58:30.076Z,102207.9
2024-01-21T10:59:35.596Z,102209.91
2024-01-21T11:00:41.511Z,102210.41
2024-01-21T11:01:47.445Z,102211.48
2024-01-21T11:02:53.046Z,102214.3
2024-01-21T11:03:59.632Z,102212.52
2024-01-21T11:05:05.610Z,102206.42
2024-01-21T11:06:11.747Z,102209.24
2024-01-21T11:07:17.672Z,102203.63
2024-01-21T11:08:24.009Z,102204.48
2024-01-21T11:09:29.584Z,102196.4
2024-01-21T11:10:35.151Z,102203.02
2024-01-21T11:11:40.650Z,102201.67
2024-01-21T11:12:46.280Z,102204.96
2024-01-21T11:13:51.811Z,102201.55
2024-01-21T11:14:57.386Z,102195.72
2024-01-21T11:16:03.010Z,102194.38
2024-01-21T11:17:08.719Z,102193.96
2024-01-21T11:18:15.132Z,102194.02
2024-01-21T11:19:21.037Z,102195.13
2024-01-21T11:20:26.726Z,102190.98
2024-01-21T11:21:32.302Z,102194.34
2024-01-21T11:22:37.850Z,102195.61
2024-01-21T11:23:43.345Z,102189.1
2024-01-21T11:24:49.300Z,102189.28
2024-01-21T11:25:54.984Z,102182.73
2024-01-21T11:27:00.472Z,102183.38
2024-01-21T11:28:06.246Z,102184.78
2024-01-21T11:29:11.798Z,102174.2
2024-01-21T11:30:17.318Z,102178.32
2024-01-21T11:31:22.846Z,102174.44
2024-01-21T11:32:28.941Z,102173.56
2024-01-21T11:33:35.612Z,102177.77
2024-01-21T11:34:41.954Z,102179.05
2024-01-21T11:35:47.802Z,102178.7
2024-01-21T11:36:53.388Z,102177.46
2024-01-21T11:37:59.121Z,102183.19
2024-01-21T11:39:04.700Z,102188.44
2024-01-21T11:40:10.333Z,102185.94
2024-01-21T11:41:16.001Z,102179.72
2024-01-21T11:42:21.529Z,102177.3
2024-01-21T11:43:27.175Z,102177.22
2024-01-21T11:44:32.650Z,102175.6
2024-01-21T11:45:38.193Z,102179.68
2024-01-21T11:46:43.853Z,102172.86
2024-01-21T11:47:49.610Z,102164.56
2024-01-21T11:48:55.365Z,102161.64
2024-01-21T11:50:01.180Z,102164.5
2024-01-21T11:51:06.903Z,102167.08
2024-01-21T11:52:12.464Z,102163.42
2024-01-21T11:53:18.006Z,102162.86
2024-01-21T11:54:23.598Z,102166.38
2024-01-21T11:55:29.361Z,102165.49
2024-01-21T11:56:34.829Z,102166.57
2024-01-21T11:57:40.389Z,102153.67
2024-01-21T11:58:45.945Z,102157.7
2024-01-21T11:59:51.487Z,102163.05
2024-01-21T12:00:57.140Z,102161.53
2024-01-21T12:02:02.993Z,102157.82
2024-01-21T12:03:08.557Z,102145.2
2024-01-21T12:04:14.471Z,102143.36
2024-01-21T12:05:20.245Z,102145.58
2024-01-21T12:06:25.922Z,102126.31
2024-01-21T12:07:31.714Z,102130.7
2024-01-21T12:08:37.395Z,102131.2
2024-01-21T12:09:43.051Z,102124.14
2024-01-21T12:10:48.643Z,102122.8
2024-01-21T12:11:54.289Z,102118.47
2024-01-21T12:12:59.918Z,102115.38
2024-01-21T12:14:05.535Z,102120.84
2024-01-21T12:15:11.093Z,102120.5
2024-01-21T12:16:16.541Z,102121.95
2024-01-21T12:17:22.073Z,102120.24
2024-01-21T12:18:27.769Z,102116.23
2024-01-21T12:19:33.771Z,102103.86
2024-01-21T12:20:39.536Z,102104.47
2024-01-21T12:21:45.089Z,102096.94
2024-01-21T12:22:51.172Z,102104
2024-01-21T12:23:56.698Z,102100.4
2024-01-21T12:25:02.435Z,102092.41
2024-01-21T12:26:08.128Z,102092
2024-01-21T12:27:13.597Z,102093.75
2024-01-21T12:28:19.366Z,102090.61
2024-01-21T12:29:25.026Z,102090.1
2024-01-21T12:30:30.888Z,102095.04
2024-01-21T12:31:36.443Z,102094.63
2024-01-21T12:32:52.931Z,102097.35
2024-01-21T12:34:04.357Z,102094.67